KNGU

Norfolk NS (Chambers Field) Airport

Norfolk, Virginia, USA
METAR KNGU 181359Z 23012G18KT 10SM FEW030 SCT200 BKN280 29/23 A2998 RMK AO2 SLP151 T02890233
Observed Flight Rules
Aug-18 @ 13:59 UTC (53 minutes ago) Visual Flight Rules
Wind Visibility Clouds
230° at 12 knots
 Gusting to 18 knots
10 miles
  • Few at 3,000' AGL
  • Scattered at 20,000' AGL
  • Broken at 28,000' AGL
Temperatures Readings
Current 29°C / 84°F
Dewpoint 23°C / 73°F
Humidity 70%
Altimeter 29.98" Hg
Pressure 1015.1 hPa
Elevation 5
METAR KNGU 181359Z 23012G18KT 10SM FEW030 SCT200 BKN280 29/23 A2998 RMK AO2 SLP151 T02890233
Observed Flight Rules
Aug-18 @ 13:59 UTC
(53 minutes ago)
VFR
Wind Visibility
230° at 12 knots
 Gusting to 18 knots
10 miles
Clouds
  • Few at 3,000' AGL
  • Scattered at 20,000' AGL
  • Broken at 28,000' AGL
Temperature Dewpoint
29°C / 84°F 23°C / 73°F
Humidity Altimeter Pressure
70% 29.98" Hg 1015.1 hPa